Time;durP1;ratioP1;P1;durP2;ratioP2;P2;SDS_P1;SDS_P2;PMS_P1;PMS_P2;Temp;Humidity;BMP_temperature;BMP_pressure;BME280_temperature;BME280_humidity;BME280_pressure;Samples;Min_cycle;Max_cycle;Signal;HPM_P1;HPM_P2
2023/03/23 00:00:05;;;;;;;;;;;;;;;8.95;100.00;99757.19;5056313;28;19916;-80
2023/03/23 00:02:35;;;;;;;;;;;;;;;9.01;100.00;99749.50;5057115;28;20302;-81
2023/03/23 00:05:14;;;;;;;;;;;;;;;9.07;100.00;99747.50;5054934;28;19952;-81
2023/03/23 00:07:45;;;;;;;;;;;;;;;9.13;100.00;99739.84;5055767;28;19919;-81
2023/03/23 00:10:11;;;;;;;;;;;;;;;9.15;100.00;99742.94;5055884;28;19912;-80
2023/03/23 00:12:37;;;;;;;;;;;;;;;9.16;100.00;99752.28;5053937;28;19932;-79
2023/03/23 00:15:05;;;;;;;;;;;;;;;9.13;100.00;99750.44;5054290;28;19916;-80
2023/03/23 00:17:34;;;;;;;;;;;;;;;9.12;100.00;99752.50;5037705;28;19939;-80
2023/03/23 00:20:00;;;;;;;;;;;;;;;9.12;100.00;99752.50;5054240;28;20412;-81
2023/03/23 00:22:26;;;;;;;;;;;;;;;9.12;100.00;99751.72;5054287;28;20282;-80
2023/03/23 00:24:53;;;;;;;;;;;;;;;9.13;100.00;99748.38;5054472;28;19920;-76
2023/03/23 00:27:21;;;;;;;;;;;;;;;9.13;100.00;99748.38;5055378;28;19940;-77
2023/03/23 00:29:47;;;;;;;;;;;;;;;9.15;100.00;99751.50;5053948;28;20262;-76
2023/03/23 00:32:14;;;;;;;;;;;;;;;9.14;100.00;99752.03;5054105;28;19956;-77
2023/03/23 00:34:40;;;;;;;;;;;;;;;9.11;100.00;99748.09;5054069;28;19909;-77
2023/03/23 00:37:07;;;;;;;;;;;;;;;9.12;100.00;99749.66;5053794;28;20374;-76
2023/03/23 00:39:36;;;;;;;;;;;;;;;9.14;100.00;99752.81;5054714;28;20314;-77
2023/03/23 00:42:12;;;;;;;;;;;;;;;9.16;100.00;99744.53;5056804;28;20066;-79
2023/03/23 00:44:39;;;;;;;;;;;;;;;9.20;100.00;99742.25;5055371;28;19920;-78
2023/03/23 00:47:06;;;;;;;;;;;;;;;9.24;100.00;99745.69;5056652;28;19915;-77
2023/03/23 00:49:34;;;;;;;;;;;;;;;9.27;100.00;99743.91;5056541;28;19908;-76
2023/03/23 00:52:01;;;;;;;;;;;;;;;9.31;100.00;99743.69;5056414;28;20006;-77
2023/03/23 00:54:27;;;;;;;;;;;;;;;9.33;100.00;99735.44;5055939;28;19928;-77
2023/03/23 00:56:55;;;;;;;;;;;;;;;9.38;100.00;99729.00;5054735;28;19936;-77
2023/03/23 00:59:21;;;;;;;;;;;;;;;9.37;100.00;99725.38;5054879;28;20251;-77
2023/03/23 01:01:47;;;;;;;;;;;;;;;9.40;100.00;99717.88;5056153;28;19915;-77
2023/03/23 01:04:14;;;;;;;;;;;;;;;9.44;100.00;99724.97;5053733;28;20352;-77
2023/03/23 01:06:40;;;;;;;;;;;;;;;9.45;100.00;99723.66;5054635;28;20097;-75
2023/03/23 01:09:08;;;;;;;;;;;;;;;9.46;100.00;99727.28;5054588;28;19917;-77
2023/03/23 01:11:35;;;;;;;;;;;;;;;9.48;100.00;99722.66;5054558;28;19913;-76
2023/03/23 01:14:01;;;;;;;;;;;;;;;9.51;100.00;99721.66;5055995;28;19909;-76
2023/03/23 01:16:27;;;;;;;;;;;;;;;9.53;100.00;99726.88;5055841;28;19909;-78
2023/03/23 01:18:52;;;;;;;;;;;;;;;9.55;100.00;99721.44;5036758;28;19967;-77
2023/03/23 01:21:18;;;;;;;;;;;;;;;9.58;100.00;99723.31;5054069;28;20007;-75
2023/03/23 01:23:43;;;;;;;;;;;;;;;9.61;100.00;99708.81;5055028;28;19908;-77
2023/03/23 01:26:13;;;;;;;;;;;;;;;9.65;100.00;99712.22;5056807;28;19909;-76
2023/03/23 01:28:38;;;;;;;;;;;;;;;9.69;100.00;99712.78;5055924;28;19908;-77
2023/03/23 01:31:05;;;;;;;;;;;;;;;9.73;100.00;99711.84;5054514;28;20414;-77
2023/03/23 01:33:32;;;;;;;;;;;;;;;9.78;100.00;99720.47;5055567;28;19920;-79
2023/03/23 01:36:02;;;;;;;;;;;;;;;9.81;100.00;99710.88;5037590;28;19940;-81
2023/03/23 01:38:27;;;;;;;;;;;;;;;9.82;100.00;99709.59;5052013;28;19927;-80
2023/03/23 01:40:53;;;;;;;;;;;;;;;9.85;100.00;99702.88;5057959;28;19909;-79
2023/03/23 01:43:18;;;;;;;;;;;;;;;9.88;100.00;99696.19;5039266;28;19909;-79
2023/03/23 01:45:45;;;;;;;;;;;;;;;9.94;100.00;99694.16;5054360;28;19915;-80
2023/03/23 01:48:16;;;;;;;;;;;;;;;9.96;100.00;99691.59;5037244;28;20280;-80
2023/03/23 01:50:47;;;;;;;;;;;;;;;9.97;100.00;99696.00;5053803;28;19913;-79
2023/03/23 01:53:13;;;;;;;;;;;;;;;10.01;100.00;99699.41;5036767;28;19927;-79
2023/03/23 01:55:40;;;;;;;;;;;;;;;10.06;100.00;99698.69;5053542;28;19908;-80
2023/03/23 01:58:06;;;;;;;;;;;;;;;10.02;100.00;99691.66;5053012;28;20007;-79
2023/03/23 02:00:32;;;;;;;;;;;;;;;10.01;100.00;99684.38;5053354;28;19991;-79
2023/03/23 02:03:00;;;;;;;;;;;;;;;10.00;100.00;99674.22;5051649;28;19915;-80
2023/03/23 02:05:33;;;;;;;;;;;;;;;10.00;100.00;99679.94;5051771;28;19909;-78
2023/03/23 02:08:02;;;;;;;;;;;;;;;10.00;100.00;99666.44;5052312;28;19912;-80
2023/03/23 02:10:30;;;;;;;;;;;;;;;10.02;100.00;99674.53;5052370;28;20424;-78
2023/03/23 02:13:03;;;;;;;;;;;;;;;10.01;100.00;99676.59;5053175;28;20301;-79
2023/03/23 02:15:32;;;;;;;;;;;;;;;9.99;100.00;99666.94;5035526;28;20025;-79
2023/03/23 02:18:01;;;;;;;;;;;;;;;9.99;100.00;99662.03;5051956;28;19913;-79
2023/03/23 02:20:27;;;;;;;;;;;;;;;9.99;100.00;99664.88;5052102;28;20051;-80
2023/03/23 02:23:11;;;;;;;;;;;;;;;9.99;100.00;99652.69;5053640;28;19909;-79
2023/03/23 02:25:47;;;;;;;;;;;;;;;10.01;100.00;99662.31;5053542;28;19962;-79
2023/03/23 02:28:29;;;;;;;;;;;;;;;10.01;100.00;99662.31;5051925;28;20047;-79
2023/03/23 02:31:28;;;;;;;;;;;;;;;10.03;100.00;99658.97;5053238;28;19999;-80
2023/03/23 02:33:56;;;;;;;;;;;;;;;10.05;100.00;99660.00;5051878;28;19909;-79
2023/03/23 02:36:36;;;;;;;;;;;;;;;10.09;100.00;99649.16;5051892;28;20231;-80
2023/03/23 02:39:17;;;;;;;;;;;;;;;10.08;100.00;99649.66;5054248;28;19916;-78
2023/03/23 02:41:53;;;;;;;;;;;;;;;10.09;100.00;99656.91;5054534;28;20347;-80
2023/03/23 02:44:18;;;;;;;;;;;;;;;10.10;100.00;99653.56;5054282;28;20251;-80
2023/03/23 02:46:45;;;;;;;;;;;;;;;10.11;100.00;99657.22;5053189;28;20421;-79
2023/03/23 02:49:15;;;;;;;;;;;;;;;10.11;100.00;99655.16;5052829;28;19908;-79
2023/03/23 02:51:42;;;;;;;;;;;;;;;10.13;100.00;99666.06;5052647;28;19923;-78
2023/03/23 02:54:08;;;;;;;;;;;;;;;10.14;100.00;99667.59;5052409;28;20286;-78
2023/03/23 02:56:33;;;;;;;;;;;;;;;10.12;100.00;99664.50;5054214;28;19920;-78
2023/03/23 02:58:59;;;;;;;;;;;;;;;10.14;100.00;99659.03;5053414;28;19912;-79
2023/03/23 03:01:36;;;;;;;;;;;;;;;10.14;100.00;99653.34;5052723;28;19916;-79
2023/03/23 03:04:23;;;;;;;;;;;;;;;10.15;100.00;99674.88;5053909;28;19908;-79
2023/03/23 03:06:58;;;;;;;;;;;;;;;10.16;100.00;99672.81;5053603;28;20273;-79
2023/03/23 03:09:31;;;;;;;;;;;;;;;10.17;100.00;99666.63;5053953;28;19909;-79
2023/03/23 03:11:59;;;;;;;;;;;;;;;10.20;100.00;99659.88;5053855;28;19970;-79
2023/03/23 03:14:26;;;;;;;;;;;;;;;10.21;100.00;99657.81;5035582;28;19912;-79
2023/03/23 03:17:07;;;;;;;;;;;;;;;10.22;100.00;99660.16;5052539;28;19923;-78
2023/03/23 03:19:33;;;;;;;;;;;;;;;10.22;100.00;99657.31;5052407;28;19914;-80
2023/03/23 03:21:59;;;;;;;;;;;;;;;10.22;100.00;99651.59;5035817;28;20003;-80
2023/03/23 03:24:25;;;;;;;;;;;;;;;10.22;100.00;99648.75;5035688;28;19940;-79
2023/03/23 03:26:51;;;;;;;;;;;;;;;10.23;100.00;99650.31;5051756;28;19982;-79
2023/03/23 03:29:35;;;;;;;;;;;;;;;10.24;100.00;99649.00;5035641;28;19920;-79
2023/03/23 03:32:01;;;;;;;;;;;;;;;10.24;100.00;99639.66;5053545;28;19909;-80
2023/03/23 03:34:27;;;;;;;;;;;;;;;10.24;100.00;99643.31;5035371;28;19913;-79
2023/03/23 03:37:04;;;;;;;;;;;;;;;10.24;100.00;99636.81;5052015;28;19913;-80
2023/03/23 03:39:31;;;;;;;;;;;;;;;10.23;100.00;99626.69;5053396;28;19908;-78
2023/03/23 03:41:57;;;;;;;;;;;;;;;10.24;100.00;99633.94;5053387;28;19956;-78
2023/03/23 03:44:22;;;;;;;;;;;;;;;10.22;100.00;99625.91;5053218;28;19931;-80
2023/03/23 03:46:47;;;;;;;;;;;;;;;10.23;100.00;99624.63;5053188;28;19909;-79
2023/03/23 03:49:15;;;;;;;;;;;;;;;10.24;100.00;99619.66;5053249;28;20337;-80
2023/03/23 03:51:41;;;;;;;;;;;;;;;10.24;100.00;99628.22;5051912;28;19924;-79
2023/03/23 03:54:07;;;;;;;;;;;;;;;10.23;100.00;99632.41;5052492;28;19916;-80
2023/03/23 03:56:35;;;;;;;;;;;;;;;10.22;100.00;99625.91;5034830;28;20350;-81
2023/03/23 03:59:02;;;;;;;;;;;;;;;10.22;100.00;99623.06;5053384;28;19954;-78
2023/03/23 04:01:28;;;;;;;;;;;;;;;10.21;100.00;99624.34;5051996;28;19916;-80
2023/03/23 04:03:54;;;;;;;;;;;;;;;10.23;100.00;99629.53;5035260;28;19913;-80
2023/03/23 04:06:20;;;;;;;;;;;;;;;10.23;100.00;99636.03;5035128;28;19954;-80
2023/03/23 04:08:46;;;;;;;;;;;;;;;10.20;100.00;99624.84;5053384;28;19916;-79
2023/03/23 04:11:14;;;;;;;;;;;;;;;10.20;100.00;99633.41;5053008;28;19912;-78
2023/03/23 04:13:40;;;;;;;;;;;;;;;10.18;100.00;99630.28;5035065;28;19913;-79
2023/03/23 04:16:07;;;;;;;;;;;;;;;10.17;100.00;99625.84;5035237;28;19912;-78
2023/03/23 04:18:55;;;;;;;;;;;;;;;10.14;100.00;99624.78;5052748;28;20309;-80
2023/03/23 04:21:22;;;;;;;;;;;;;;;10.14;100.00;99629.75;5051940;28;19962;-80
2023/03/23 04:23:48;;;;;;;;;;;;;;;10.14;100.00;99626.88;5052377;28;20420;-78
2023/03/23 04:26:15;;;;;;;;;;;;;;;10.15;100.00;99626.34;5051601;28;19908;-79
2023/03/23 04:28:42;;;;;;;;;;;;;;;10.11;100.00;99625.81;5051476;28;19991;-79
2023/03/23 04:31:12;;;;;;;;;;;;;;;10.13;100.00;99631.03;5052676;28;20411;-77
2023/03/23 04:33:41;;;;;;;;;;;;;;;10.16;100.00;99630.78;5052642;28;19936;-78
2023/03/23 04:36:06;;;;;;;;;;;;;;;10.22;100.00;99630.84;5051717;28;19905;-79
2023/03/23 04:38:32;;;;;;;;;;;;;;;10.27;100.00;99624.38;5035326;28;19913;-79
2023/03/23 04:41:01;;;;;;;;;;;;;;;10.31;100.00;99627.78;5056715;28;19909;-79
2023/03/23 04:43:29;;;;;;;;;;;;;;;10.40;100.00;99628.38;5055509;28;19909;-79
2023/03/23 04:46:02;;;;;;;;;;;;;;;10.45;100.00;99630.50;5056607;28;20016;-80
2023/03/23 04:48:33;;;;;;;;;;;;;;;10.50;100.00;99628.97;5055061;28;19915;-79
2023/03/23 04:51:02;;;;;;;;;;;;;;;10.58;100.00;99621.47;5055304;28;19913;-79
2023/03/23 04:53:33;;;;;;;;;;;;;;;10.60;100.00;99629.53;5056552;28;19920;-81
2023/03/23 04:55:58;;;;;;;;;;;;;;;10.61;100.00;99623.31;5055006;28;19909;-80
2023/03/23 04:58:24;;;;;;;;;;;;;;;10.63;100.00;99620.72;5038146;28;19952;-79
2023/03/23 05:00:51;;;;;;;;;;;;;;;10.66;100.00;99616.06;5055105;28;19962;-80
2023/03/23 05:03:18;;;;;;;;;;;;;;;10.67;100.00;99618.44;5056348;28;19978;-79
2023/03/23 05:05:52;;;;;;;;;;;;;;;10.73;100.00;99612.75;5038322;28;20020;-79
2023/03/23 05:08:32;;;;;;;;;;;;;;;10.78;100.00;99611.97;5054685;28;20316;-79
2023/03/23 05:10:59;;;;;;;;;;;;;;;10.80;100.00;99613.03;5056682;28;20349;-79
2023/03/23 05:13:28;;;;;;;;;;;;;;;10.85;100.00;99609.44;5056625;28;19920;-79
2023/03/23 05:15:55;;;;;;;;;;;;;;;10.88;100.00;99611.25;5056913;28;19909;-79
2023/03/23 05:18:20;;;;;;;;;;;;;;;10.92;100.00;99606.09;5033928;28;19920;-79
2023/03/23 05:20:46;;;;;;;;;;;;;;;11.01;100.00;99607.94;5034085;28;19909;-80
2023/03/23 05:23:13;;;;;;;;;;;;;;;11.03;100.00;99613.91;5034372;28;19920;-80
2023/03/23 05:25:42;;;;;;;;;;;;;;;11.08;100.00;99610.31;5035762;28;19917;-80
2023/03/23 05:28:08;;;;;;;;;;;;;;;11.13;100.00;99603.84;5034229;28;20012;-80
2023/03/23 05:30:34;;;;;;;;;;;;;;;11.19;100.00;99606.75;5051434;28;20011;-79
2023/03/23 05:33:00;;;;;;;;;;;;;;;11.24;100.00;99605.97;5039199;28;19955;-81
2023/03/23 05:35:27;;;;;;;;;;;;;;;11.27;100.00;99611.44;5055763;28;19908;-80
2023/03/23 05:37:53;;;;;;;;;;;;;;;11.35;100.00;99603.16;5055357;28;19913;-75
2023/03/23 05:40:19;;;;;;;;;;;;;;;11.39;100.00;99607.34;5053837;28;20423;-74
2023/03/23 05:42:46;;;;;;;;;;;;;;;11.43;100.00;99609.16;5035039;28;19964;-75
2023/03/23 05:45:11;;;;;;;;;;;;;;;11.50;100.00;99602.94;5022166;28;19966;-75
2023/03/23 05:47:38;;;;;;;;;;;;;;;11.55;100.00;99607.91;5035240;28;19915;-71
2023/03/23 05:50:06;;;;;;;;;;;;;;;11.59;100.00;99611.28;5033728;28;19913;-70
2023/03/23 05:52:35;;;;;;;;;;;;;;;11.66;100.00;99613.66;5034699;28;20366;-71
2023/03/23 05:55:00;;;;;;;;;;;;;;;11.74;100.00;99618.34;5034080;28;19925;-71
2023/03/23 05:57:26;;;;;;;;;;;;;;;11.81;100.00;99609.22;5048652;28;20262;-70
2023/03/23 05:59:52;;;;;;;;;;;;;;;11.93;100.00;99609.25;5054610;28;19912;-77
2023/03/23 06:02:18;;;;;;;;;;;;;;;11.96;100.00;99611.09;5054382;28;19951;-76
2023/03/23 06:04:44;;;;;;;;;;;;;;;12.03;100.00;99605.59;5054910;28;19908;-79
2023/03/23 06:07:14;;;;;;;;;;;;;;;12.08;100.00;99604.81;5053211;28;19913;-73
2023/03/23 06:09:40;;;;;;;;;;;;;;;12.11;100.00;99595.19;5054149;28;20338;-75
2023/03/23 06:12:07;;;;;;;;;;;;;;;12.16;100.00;99603.00;5054169;28;19916;-78
2023/03/23 06:14:33;;;;;;;;;;;;;;;12.20;100.00;99600.66;5052744;28;19913;-74
2023/03/23 06:17:00;;;;;;;;;;;;;;;12.28;100.00;99603.78;5050370;28;19913;-77
2023/03/23 06:19:26;;;;;;;;;;;;;;;12.38;100.00;99605.09;5054619;28;19908;-73
2023/03/23 06:21:56;;;;;;;;;;;;;;;12.54;100.00;99604.31;5054764;28;19991;-73
2023/03/23 06:24:22;;;;;;;;;;;;;;;12.81;100.00;99596.94;5054679;28;19908;-73
2023/03/23 06:26:50;;;;;;;;;;;;;;;13.13;100.00;99603.88;5052892;28;19908;-75
2023/03/23 06:29:17;;;;;;;;;;;;;;;13.51;100.00;99598.47;5051903;28;19999;-76
2023/03/23 06:31:49;;;;;;;;;;;;;;;13.80;100.00;99600.63;5052031;28;20334;-74
2023/03/23 06:34:14;;;;;;;;;;;;;;;14.00;98.92;99599.44;5052461;28;19919;-73
2023/03/23 06:36:40;;;;;;;;;;;;;;;14.25;96.57;99598.19;5054919;28;19913;-75
2023/03/23 06:39:05;;;;;;;;;;;;;;;14.51;94.28;99602.66;5053039;28;20411;-74
2023/03/23 06:41:32;;;;;;;;;;;;;;;14.76;90.95;99610.03;5052438;28;19990;-74
2023/03/23 06:44:00;;;;;;;;;;;;;;;14.95;89.25;99604.31;5052130;28;19913;-75
2023/03/23 06:46:25;;;;;;;;;;;;;;;15.10;87.55;99608.31;5053027;28;19909;-74
2023/03/23 06:48:51;;;;;;;;;;;;;;;15.18;87.12;99600.63;5051744;28;19915;-74
2023/03/23 06:51:17;;;;;;;;;;;;;;;15.30;85.67;99607.03;5052883;28;19909;-74
2023/03/23 06:53:43;;;;;;;;;;;;;;;15.35;84.44;99608.28;5034587;28;19921;-74
2023/03/23 06:56:08;;;;;;;;;;;;;;;15.32;84.10;99598.59;5051266;28;19956;-74
2023/03/23 06:58:34;;;;;;;;;;;;;;;15.35;83.01;99611.94;5052527;28;19917;-75
2023/03/23 07:01:00;;;;;;;;;;;;;;;15.34;82.75;99604.63;5052068;28;19916;-73
2023/03/23 07:03:27;;;;;;;;;;;;;;;15.40;82.65;99608.19;5052840;28;19936;-74
2023/03/23 07:05:53;;;;;;;;;;;;;;;15.57;82.35;99611.63;5052637;28;19911;-74
2023/03/23 07:08:18;;;;;;;;;;;;;;;15.84;81.30;99603.16;5053868;28;19908;-74
2023/03/23 07:10:44;;;;;;;;;;;;;;;16.16;79.49;99606.81;5035671;28;19998;-74
2023/03/23 07:13:10;;;;;;;;;;;;;;;16.58;76.70;99607.97;5052419;28;20042;-74
2023/03/23 07:15:38;;;;;;;;;;;;;;;16.97;73.09;99613.78;5052412;28;20008;-75
2023/03/23 07:18:04;;;;;;;;;;;;;;;17.36;71.03;99615.09;5053256;28;20230;-74
2023/03/23 07:20:29;;;;;;;;;;;;;;;19.04;64.96;99615.47;5053394;28;20218;-74
2023/03/23 07:22:56;;;;;;;;;;;;;;;21.05;54.05;99615.69;5053832;28;20004;-74
2023/03/23 07:25:21;;;;;;;;;;;;;;;21.64;46.86;99610.31;5052134;28;19944;-74
2023/03/23 07:27:47;;;;;;;;;;;;;;;21.26;46.51;99610.41;5053542;28;19943;-74
2023/03/23 07:30:14;;;;;;;;;;;;;;;20.76;47.50;99621.72;5053296;28;19916;-73
2023/03/23 07:32:39;;;;;;;;;;;;;;;20.03;50.07;99607.28;5051986;28;19920;-76
2023/03/23 07:35:04;;;;;;;;;;;;;;;19.31;53.06;99602.38;5035376;28;19908;-75
2023/03/23 07:37:32;;;;;;;;;;;;;;;18.65;56.14;99602.84;5053552;28;20020;-75
2023/03/23 07:39:59;;;;;;;;;;;;;;;18.09;59.73;99615.03;5053343;28;19911;-76
2023/03/23 07:42:24;;;;;;;;;;;;;;;17.68;63.75;99609.97;5035203;28;19965;-75
2023/03/23 07:44:51;;;;;;;;;;;;;;;17.39;66.07;99602.41;5051670;28;19912;-73
2023/03/23 07:47:17;;;;;;;;;;;;;;;17.25;67.31;99603.78;5052875;28;20385;-74
2023/03/23 07:49:44;;;;;;;;;;;;;;;17.41;69.77;99588.97;5053328;28;19904;-76
2023/03/23 07:52:23;;;;;;;;;;;;;;;18.71;67.71;99587.47;5053396;28;20381;-74
2023/03/23 07:54:50;;;;;;;;;;;;;;;20.78;57.06;99606.63;5052846;28;19923;-75
2023/03/23 07:57:16;;;;;;;;;;;;;;;22.78;48.53;99600.88;5052872;28;20062;-75
2023/03/23 07:59:43;;;;;;;;;;;;;;;24.17;42.77;99606.88;5051562;28;19920;-74
2023/03/23 08:02:09;;;;;;;;;;;;;;;23.40;40.17;99596.00;5052864;28;19904;-76
2023/03/23 08:04:37;;;;;;;;;;;;;;;22.09;42.70;99606.41;5052076;28;19909;-76
2023/03/23 08:07:12;;;;;;;;;;;;;;;21.13;45.13;99601.94;5053139;28;19909;-76
2023/03/23 08:09:40;;;;;;;;;;;;;;;20.44;47.75;99594.59;5053255;28;20034;-76
2023/03/23 08:12:05;;;;;;;;;;;;;;;19.78;49.46;99598.28;5053112;28;19959;-75
2023/03/23 08:14:32;;;;;;;;;;;;;;;19.12;52.68;99593.13;5057080;28;20265;-73
2023/03/23 08:17:00;;;;;;;;;;;;;;;18.62;55.43;99588.75;5057229;28;19909;-75
2023/03/23 08:19:26;;;;;;;;;;;;;;;18.67;59.26;99571.22;5056881;28;20004;-76
2023/03/23 08:21:53;;;;;;;;;;;;;;;18.95;57.75;99570.44;5056809;28;19940;-75
2023/03/23 08:24:20;;;;;;;;;;;;;;;19.32;56.20;99568.34;5056963;28;19935;-74
2023/03/23 08:26:47;;;;;;;;;;;;;;;19.47;54.52;99565.50;5056502;28;20011;-74
2023/03/23 08:29:14;;;;;;;;;;;;;;;19.92;53.27;99562.00;5056679;28;19986;-75
2023/03/23 08:31:40;;;;;;;;;;;;;;;21.88;48.43;99563.06;5056404;28;19912;-75
2023/03/23 08:34:07;;;;;;;;;;;;;;;24.38;41.54;99556.75;5055075;28;19909;-75
2023/03/23 08:36:34;;;;;;;;;;;;;;;25.70;36.70;99564.81;5056470;28;19920;-74
2023/03/23 08:39:01;;;;;;;;;;;;;;;26.66;35.11;99567.47;5055075;28;20278;-75
2023/03/23 08:41:26;;;;;;;;;;;;;;;27.91;33.72;99566.56;5056340;28;19913;-75
2023/03/23 08:43:52;;;;;;;;;;;;;;;29.14;31.10;99575.88;5056484;28;20258;-75
2023/03/23 08:46:19;;;;;;;;;;;;;;;28.49;30.10;99571.06;5055074;28;19916;-76
2023/03/23 08:48:45;;;;;;;;;;;;;;;27.09;31.35;99559.53;5055041;28;20376;-75
2023/03/23 08:51:11;;;;;;;;;;;;;;;25.87;32.63;99569.75;5056411;28;19908;-79
2023/03/23 08:53:39;;;;;;;;;;;;;;;24.79;34.41;99577.50;5056075;28;19916;-78
2023/03/23 08:56:12;;;;;;;;;;;;;;;24.04;35.17;99583.13;5056133;28;19927;-77
2023/03/23 08:58:38;;;;;;;;;;;;;;;23.56;36.49;99579.88;5056532;28;19963;-78
2023/03/23 09:01:06;;;;;;;;;;;;;;;23.18;36.17;99578.16;5056574;28;19908;-78
2023/03/23 09:03:40;;;;;;;;;;;;;;;22.97;36.51;99589.44;5054940;28;19935;-77
2023/03/23 09:06:15;;;;;;;;;;;;;;;22.77;37.51;99590.56;5056223;28;19909;-75
2023/03/23 09:08:41;;;;;;;;;;;;;;;22.40;37.75;99580.78;5055854;28;19909;-77
2023/03/23 09:11:12;;;;;;;;;;;;;;;21.97;39.05;99596.59;5055998;28;19909;-78
2023/03/23 09:13:42;;;;;;;;;;;;;;;21.73;39.41;99600.22;5054783;28;19924;-77
2023/03/23 09:16:08;;;;;;;;;;;;;;;21.53;39.74;99599.88;5054805;28;19959;-76
2023/03/23 09:18:35;;;;;;;;;;;;;;;21.35;40.21;99611.94;5054629;28;20254;-77
2023/03/23 09:21:04;;;;;;;;;;;;;;;21.20;40.66;99607.72;5055940;28;19916;-77
2023/03/23 09:23:29;;;;;;;;;;;;;;;21.00;42.16;99593.41;5056254;28;20005;-79
2023/03/23 09:25:56;;;;;;;;;;;;;;;20.92;44.21;99604.28;5055501;28;19908;-78
2023/03/23 09:28:21;;;;;;;;;;;;;;;20.88;43.25;99606.81;5055927;28;19931;-77
2023/03/23 09:30:47;;;;;;;;;;;;;;;20.70;43.52;99611.59;5055567;28;20255;-78
2023/03/23 09:33:14;;;;;;;;;;;;;;;20.52;44.34;99599.03;5055098;28;19909;-77
2023/03/23 09:35:41;;;;;;;;;;;;;;;20.48;45.30;99600.78;5055423;28;19916;-78
2023/03/23 09:38:15;;;;;;;;;;;;;;;20.63;45.68;99595.75;5054081;28;19941;-78
2023/03/23 09:40:48;;;;;;;;;;;;;;;20.90;45.09;99599.03;5055205;28;20259;-79
2023/03/23 09:43:29;;;;;;;;;;;;;;;21.16;44.26;99597.84;5055441;28;20411;-77
2023/03/23 09:46:05;;;;;;;;;;;;;;;21.56;43.70;99603.75;5055553;28;19912;-77
2023/03/23 09:48:39;;;;;;;;;;;;;;;22.09;42.85;99606.41;5055429;28;20000;-77
2023/03/23 09:51:25;;;;;;;;;;;;;;;22.52;41.35;99597.19;5053886;28;19908;-76
2023/03/23 09:53:56;;;;;;;;;;;;;;;22.34;39.22;99597.72;5054961;28;19917;-77
2023/03/23 09:56:23;;;;;;;;;;;;;;;21.74;40.36;99616.28;5053900;28;20373;-77
2023/03/23 09:59:01;;;;;;;;;;;;;;;21.40;41.48;99600.09;5054024;28;19917;-77
2023/03/23 10:01:39;;;;;;;;;;;;;;;21.19;42.60;99614.88;5054952;28;19954;-79
2023/03/23 10:04:29;;;;;;;;;;;;;;;21.14;43.68;99615.06;5055110;28;19909;-77
2023/03/23 10:07:03;;;;;;;;;;;;;;;21.22;43.37;99607.91;5054110;28;19912;-76
2023/03/23 10:09:31;;;;;;;;;;;;;;;21.34;43.13;99605.34;5053544;28;20377;-77
2023/03/23 10:11:59;;;;;;;;;;;;;;;21.43;43.37;99598.94;5054846;28;20388;-77
2023/03/23 10:14:24;;;;;;;;;;;;;;;21.36;42.90;99599.72;5054743;28;19948;-78
2023/03/23 10:17:00;;;;;;;;;;;;;;;21.35;44.15;99598.19;5054785;28;19908;-76
2023/03/23 10:19:36;;;;;;;;;;;;;;;21.65;41.49;99594.41;5054609;28;19908;-78
2023/03/23 10:22:03;;;;;;;;;;;;;;;21.76;42.38;99601.94;5053207;28;20378;-77
2023/03/23 10:24:41;;;;;;;;;;;;;;;21.84;43.09;99605.56;5054730;28;19908;-78
2023/03/23 10:27:31;;;;;;;;;;;;;;;22.15;42.37;99591.63;5054361;28;19972;-78
2023/03/23 10:30:24;;;;;;;;;;;;;;;22.50;41.57;99584.59;5054660;28;19972;-78
2023/03/23 10:33:05;;;;;;;;;;;;;;;22.71;40.11;99598.81;5053879;28;19915;-78
2023/03/23 10:35:36;;;;;;;;;;;;;;;22.35;39.39;99585.50;5054222;28;19955;-78
2023/03/23 10:38:04;;;;;;;;;;;;;;;21.79;40.34;99598.59;5052413;28;19916;-77
2023/03/23 10:40:30;;;;;;;;;;;;;;;21.37;42.21;99592.56;5053289;28;19917;-77
2023/03/23 10:42:55;;;;;;;;;;;;;;;21.04;43.51;99596.72;5054056;28;19978;-78
2023/03/23 10:45:25;;;;;;;;;;;;;;;20.70;42.76;99608.72;5053187;28;19909;-78
2023/03/23 10:48:04;;;;;;;;;;;;;;;20.27;43.56;99598.06;5054322;28;19954;-77
2023/03/23 10:50:32;;;;;;;;;;;;;;;19.90;45.16;99602.41;5053844;28;20039;-78
2023/03/23 10:52:59;;;;;;;;;;;;;;;19.64;45.54;99611.41;5053701;28;19932;-78
2023/03/23 10:55:37;;;;;;;;;;;;;;;19.46;45.64;99608.22;5052679;28;20070;-78
2023/03/23 10:58:23;;;;;;;;;;;;;;;19.39;46.30;99611.88;5053877;28;20004;-78
2023/03/23 11:01:09;;;;;;;;;;;;;;;19.41;46.63;99609.16;5053466;28;19939;-78
2023/03/23 11:03:53;;;;;;;;;;;;;;;19.68;45.86;99611.78;5053867;28;20392;-78
2023/03/23 11:06:22;;;;;;;;;;;;;;;19.79;45.50;99608.56;5053910;28;19913;-77
2023/03/23 11:08:49;;;;;;;;;;;;;;;19.87;46.04;99613.03;5052423;28;20336;-78
2023/03/23 11:11:21;;;;;;;;;;;;;;;19.78;45.89;99612.78;5053493;28;19955;-78
2023/03/23 11:14:01;;;;;;;;;;;;;;;19.63;46.38;99616.41;5053717;28;19913;-78
2023/03/23 11:16:30;;;;;;;;;;;;;;;19.50;48.33;99616.56;5053970;28;20250;-78
2023/03/23 11:18:57;;;;;;;;;;;;;;;19.45;47.97;99606.69;5052274;28;19962;-77
2023/03/23 11:21:24;;;;;;;;;;;;;;;19.43;47.08;99611.47;5052296;28;19916;-77
2023/03/23 11:23:54;;;;;;;;;;;;;;;19.48;46.83;99605.53;5051991;28;19944;-77
2023/03/23 11:26:41;;;;;;;;;;;;;;;19.62;47.62;99609.06;5052494;28;19909;-78
2023/03/23 11:29:12;;;;;;;;;;;;;;;19.97;47.72;99613.28;5052062;28;19908;-78
2023/03/23 11:31:52;;;;;;;;;;;;;;;20.29;47.55;99612.78;5053177;28;20361;-78
2023/03/23 11:34:26;;;;;;;;;;;;;;;20.62;46.72;99617.44;5053244;28;20003;-78
2023/03/23 11:36:53;;;;;;;;;;;;;;;20.92;46.50;99613.78;5053792;28;20277;-79
2023/03/23 11:39:20;;;;;;;;;;;;;;;21.20;46.42;99601.91;5053192;28;19916;-78
2023/03/23 11:41:47;;;;;;;;;;;;;;;21.32;43.96;99608.06;5053462;28;19931;-79
2023/03/23 11:44:17;;;;;;;;;;;;;;;21.21;42.63;99603.44;5053234;28;19931;-78
2023/03/23 11:47:02;;;;;;;;;;;;;;;20.99;42.42;99623.84;5051876;28;19916;-78
2023/03/23 11:49:50;;;;;;;;;;;;;;;20.87;44.29;99625.59;5053220;28;19909;-79
2023/03/23 11:52:46;;;;;;;;;;;;;;;20.70;44.43;99617.41;5052757;28;20370;-78
2023/03/23 11:55:17;;;;;;;;;;;;;;;20.55;44.82;99621.09;5052282;28;19920;-76
2023/03/23 11:57:44;;;;;;;;;;;;;;;20.55;46.31;99620.31;5052716;28;19923;-79
2023/03/23 12:00:18;;;;;;;;;;;;;;;20.54;46.14;99615.88;5053009;28;19909;-78
2023/03/23 12:03:03;;;;;;;;;;;;;;;20.48;45.67;99615.31;5051699;28;19920;-78
2023/03/23 12:05:31;;;;;;;;;;;;;;;20.32;46.24;99629.00;5052857;28;20358;-78
2023/03/23 12:08:07;;;;;;;;;;;;;;;20.16;47.23;99621.63;5051637;28;19909;-78
2023/03/23 12:10:40;;;;;;;;;;;;;;;20.00;47.36;99632.44;5052903;28;19908;-78
2023/03/23 12:13:26;;;;;;;;;;;;;;;19.81;47.24;99629.03;5053071;28;19909;-79
2023/03/23 12:16:11;;;;;;;;;;;;;;;19.52;48.28;99628.34;5055456;28;19915;-77
2023/03/23 12:18:45;;;;;;;;;;;;;;;19.35;49.15;99622.28;5055254;28;19917;-78
2023/03/23 12:21:15;;;;;;;;;;;;;;;19.15;48.62;99618.09;5054594;28;19909;-79
2023/03/23 12:23:43;;;;;;;;;;;;;;;19.01;49.29;99616.63;5053876;28;19948;-78
2023/03/23 12:26:33;;;;;;;;;;;;;;;19.02;51.04;99621.06;5053274;28;19915;-76
2023/03/23 12:29:18;;;;;;;;;;;;;;;19.02;51.11;99615.25;5052849;28;19909;-76
2023/03/23 12:31:44;;;;;;;;;;;;;;;19.04;51.23;99604.69;5051399;28;19909;-78
2023/03/23 12:34:19;;;;;;;;;;;;;;;19.13;51.25;99609.16;5052804;28;19908;-78
2023/03/23 12:37:03;;;;;;;;;;;;;;;19.15;49.56;99612.31;5051382;28;20376;-77
2023/03/23 12:39:40;;;;;;;;;;;;;;;19.05;50.06;99609.13;5053062;28;20373;-76
2023/03/23 12:42:29;;;;;;;;;;;;;;;19.03;50.69;99614.69;5052552;28;19909;-78
2023/03/23 12:45:01;;;;;;;;;;;;;;;19.05;50.58;99603.34;5052431;28;19909;-78
2023/03/23 12:47:33;;;;;;;;;;;;;;;19.12;51.59;99608.38;5034999;28;19908;-77
2023/03/23 12:50:03;;;;;;;;;;;;;;;19.22;50.80;99599.19;5052014;28;19909;-76
2023/03/23 12:52:50;;;;;;;;;;;;;;;19.21;51.95;99606.34;5054298;28;20008;-76
2023/03/23 12:55:28;;;;;;;;;;;;;;;19.07;52.21;99594.06;5052292;28;20380;-76